createdAt,value
2022-10-10T00:01:11.564Z,101509.13
2022-10-10T00:04:49.389Z,101508.07
2022-10-10T00:08:26.954Z,101507.44
2022-10-10T00:12:04.592Z,101511.80
2022-10-10T00:15:45.643Z,101508.02
2022-10-10T00:19:24.530Z,101500.71
2022-10-10T00:23:01.844Z,101507.45
2022-10-10T00:26:39.569Z,101506.84
2022-10-10T00:30:17.108Z,101506.38
2022-10-10T00:33:54.918Z,101509.48
2022-10-10T00:37:33.518Z,101508.30
2022-10-10T00:41:11.189Z,101511.23
2022-10-10T00:45:26.554Z,101505.77
2022-10-10T00:49:06.709Z,101503.83
2022-10-10T00:52:43.415Z,101494.98
2022-10-10T00:56:26.293Z,101494.50
2022-10-10T01:00:04.778Z,101495.14
2022-10-10T01:03:41.790Z,101491.98
2022-10-10T01:07:44.069Z,101492.85
2022-10-10T01:11:50.130Z,101498.00
2022-10-10T01:15:55.605Z,101498.95
2022-10-10T01:19:34.944Z,101496.42
2022-10-10T01:23:32.403Z,101494.26
2022-10-10T01:27:31.875Z,101490.91
2022-10-10T01:31:15.115Z,101497.61
2022-10-10T01:35:20.878Z,101496.54
2022-10-10T01:39:13.733Z,101498.81
2022-10-10T01:42:56.118Z,101492.92
2022-10-10T01:46:33.233Z,101498.73
2022-10-10T01:50:15.473Z,101496.26
2022-10-10T01:54:16.413Z,101497.08
2022-10-10T01:58:26.569Z,101497.79
2022-10-10T02:02:08.408Z,101490.98
2022-10-10T02:05:53.015Z,101496.11
2022-10-10T02:09:41.190Z,101491.83
2022-10-10T02:13:18.762Z,101493.77
2022-10-10T02:16:55.993Z,101494.96
2022-10-10T02:20:32.873Z,101495.01
2022-10-10T02:24:13.003Z,101493.58
2022-10-10T02:28:04.257Z,101493.71
2022-10-10T02:31:51.451Z,101492.85
2022-10-10T02:35:34.183Z,101493.96
2022-10-10T02:39:14.785Z,101492.98
2022-10-10T02:42:53.533Z,101494.56
2022-10-10T02:46:30.234Z,101496.19
2022-10-10T02:50:08.292Z,101493.83
2022-10-10T02:53:45.821Z,101488.55
2022-10-10T02:57:23.355Z,101478.54
2022-10-10T03:01:01.070Z,101476.30
2022-10-10T03:04:38.592Z,101478.68
2022-10-10T03:08:16.051Z,101479.07
2022-10-10T03:11:53.975Z,101473.05
2022-10-10T03:15:31.620Z,101472.85
2022-10-10T03:19:09.133Z,101473.41
2022-10-10T03:22:46.838Z,101473.89
2022-10-10T03:26:24.531Z,101463.45
2022-10-10T03:30:02.578Z,101469.98
2022-10-10T03:33:40.796Z,101466.63
2022-10-10T03:37:17.410Z,101477.39
2022-10-10T03:40:55.615Z,101481.31
2022-10-10T03:44:33.193Z,101482.02
2022-10-10T03:48:11.043Z,101484.23
2022-10-10T03:51:48.412Z,101483.09
2022-10-10T03:55:25.930Z,101480.80
2022-10-10T03:59:04.129Z,101479.79
2022-10-10T04:02:41.595Z,101480.53
2022-10-10T04:06:19.515Z,101472.52
2022-10-10T04:09:57.573Z,101469.61
2022-10-10T04:13:35.256Z,101469.33
2022-10-10T04:17:14.053Z,101462.52
2022-10-10T04:20:50.217Z,101457.38
2022-10-10T04:24:30.191Z,101460.66
2022-10-10T04:28:12.077Z,101464.02
2022-10-10T04:31:49.841Z,101464.60
2022-10-10T04:35:26.499Z,101466.54
2022-10-10T04:39:05.194Z,101466.16
2022-10-10T04:42:41.723Z,101469.13
2022-10-10T04:46:19.618Z,101472.27
2022-10-10T04:49:57.235Z,101469.41
2022-10-10T04:53:35.128Z,101464.30
2022-10-10T04:57:13.498Z,101460.08
2022-10-10T05:00:55.159Z,101459.42
2022-10-10T05:04:31.508Z,101451.50
2022-10-10T05:08:08.927Z,101455.55
2022-10-10T05:11:46.688Z,101455.64
2022-10-10T05:15:25.034Z,101457.80
2022-10-10T05:19:02.068Z,101460.31
2022-10-10T05:22:39.753Z,101465.19
2022-10-10T05:26:17.586Z,101458.95
2022-10-10T05:29:55.928Z,101459.80
2022-10-10T05:33:34.894Z,101462.48
2022-10-10T05:37:11.775Z,101465.39
2022-10-10T05:40:50.488Z,101464.85
2022-10-10T05:44:27.568Z,101461.05
2022-10-10T05:48:04.483Z,101463.45
2022-10-10T05:51:42.278Z,101457.81
2022-10-10T05:55:19.744Z,101452.56
2022-10-10T05:58:57.474Z,101445.15
2022-10-10T06:02:35.625Z,101449.75
2022-10-10T06:06:12.859Z,101451.52
2022-10-10T06:09:50.818Z,101454.88
2022-10-10T06:13:29.488Z,101452.77
2022-10-10T06:17:05.533Z,101445.21
2022-10-10T06:20:43.487Z,101451.75
2022-10-10T06:24:21.235Z,101451.56
2022-10-10T06:28:00.264Z,101447.67
2022-10-10T06:31:39.853Z,101446.83
2022-10-10T06:35:16.973Z,101443.65
2022-10-10T06:38:53.373Z,101451.27
2022-10-10T06:42:31.759Z,101454.62
2022-10-10T06:46:10.394Z,101456.73
2022-10-10T06:49:47.734Z,101458.89
2022-10-10T06:53:25.359Z,101455.80
2022-10-10T06:57:01.790Z,101450.46
2022-10-10T07:00:39.412Z,101441.83
2022-10-10T07:04:17.299Z,101443.33
2022-10-10T07:07:54.913Z,101436.23
2022-10-10T07:11:32.698Z,101432.23
2022-10-10T07:15:10.199Z,101440.36
2022-10-10T07:18:48.869Z,101440.79
2022-10-10T07:22:26.520Z,101438.95
2022-10-10T07:26:22.724Z,101447.63
2022-10-10T07:29:58.729Z,101445.51
2022-10-10T07:33:46.080Z,101444.34
2022-10-10T07:37:26.705Z,101448.08
2022-10-10T07:41:12.209Z,101440.85
2022-10-10T07:45:12.813Z,101443.93
2022-10-10T07:48:26.208Z,101447.27
2022-10-10T07:52:04.353Z,101448.56
2022-10-10T07:55:44.238Z,101454.79
2022-10-10T07:59:23.103Z,101448.40
2022-10-10T08:02:59.482Z,101444.60
2022-10-10T08:06:36.909Z,101435.23
2022-10-10T08:10:15.642Z,101433.03
2022-10-10T08:13:52.620Z,101425.24
2022-10-10T08:17:31.055Z,101420.84
2022-10-10T08:21:12.451Z,101415.52
2022-10-10T08:24:49.589Z,101416.54
2022-10-10T08:28:27.252Z,101413.50
2022-10-10T08:32:03.671Z,101411.73
2022-10-10T08:35:42.653Z,101420.36
2022-10-10T08:39:19.367Z,101421.41
2022-10-10T08:43:02.483Z,101412.23
2022-10-10T08:46:45.003Z,101409.70
2022-10-10T08:50:25.936Z,101407.30
2022-10-10T08:54:05.833Z,101401.09
2022-10-10T08:57:53.645Z,101394.77
2022-10-10T09:02:18.593Z,101395.02
2022-10-10T09:05:41.655Z,101398.64
2022-10-10T09:09:43.399Z,101391.53
2022-10-10T09:13:31.373Z,101389.55
2022-10-10T09:17:39.953Z,101377.48
2022-10-10T09:21:28.200Z,101380.14
2022-10-10T09:25:19.492Z,101381.29
2022-10-10T09:29:15.355Z,101381.52
2022-10-10T09:33:06.259Z,101379.20
2022-10-10T09:36:43.124Z,101374.17
2022-10-10T09:40:36.774Z,101375.52
2022-10-10T09:44:22.442Z,101374.52
2022-10-10T09:47:58.619Z,101371.19
2022-10-10T09:51:37.192Z,101357.16
2022-10-10T09:55:31.078Z,101355.18
2022-10-10T09:59:36.070Z,101351.59
2022-10-10T10:03:18.226Z,101360.23
2022-10-10T10:07:22.394Z,101361.17
2022-10-10T10:10:59.912Z,101356.33
2022-10-10T10:14:38.916Z,101352.84
2022-10-10T10:18:19.853Z,101351.51
2022-10-10T10:21:57.176Z,101343.42
2022-10-10T10:25:38.329Z,101340.73
2022-10-10T10:29:34.222Z,101339.48
2022-10-10T10:33:38.012Z,101335.41
2022-10-10T10:37:23.506Z,101336.27
2022-10-10T10:41:20.166Z,101327.68
2022-10-10T10:45:10.296Z,101316.16
2022-10-10T10:49:00.779Z,101315.14
2022-10-10T10:52:49.691Z,101308.83
2022-10-10T11:00:47.346Z,101294.92
2022-10-10T11:05:19.114Z,101294.98
2022-10-10T11:09:31.228Z,101291.25
2022-10-10T11:13:30.173Z,101281.63
2022-10-10T11:17:48.313Z,101286.31
2022-10-10T11:21:27.247Z,101282.78
2022-10-10T11:25:14.054Z,101278.38
2022-10-10T11:29:08.811Z,101271.81
2022-10-10T11:33:14.574Z,101264.98
2022-10-10T11:36:56.484Z,101263.23
2022-10-10T11:40:56.361Z,101257.31
2022-10-10T11:44:40.819Z,101250.15
2022-10-10T11:48:33.139Z,101245.66
2022-10-10T11:52:35.387Z,101242.95
2022-10-10T11:56:26.889Z,101233.72
2022-10-10T12:00:07.739Z,101223.79
2022-10-10T12:03:45.502Z,101223.59
2022-10-10T12:07:31.308Z,101215.25
2022-10-10T12:11:13.851Z,101213.37
2022-10-10T12:14:56.551Z,101206.58
2022-10-10T12:18:53.066Z,101194.41
2022-10-10T12:22:33.439Z,101184.97
2022-10-10T12:26:15.534Z,101176.80
2022-10-10T12:29:57.888Z,101169.65
2022-10-10T12:33:34.333Z,101162.08
2022-10-10T12:37:33.254Z,101156.27
2022-10-10T12:41:25.218Z,101145.59
2022-10-10T12:45:02.034Z,101137.64
2022-10-10T12:48:39.433Z,101130.77
2022-10-10T12:52:33.667Z,101131.61
2022-10-10T12:56:13.728Z,101124.35
2022-10-10T12:59:50.633Z,101125.23
2022-10-10T13:03:34.594Z,101117.27
2022-10-10T13:07:17.673Z,101114.31
2022-10-10T13:11:12.061Z,101109.98
2022-10-10T13:14:49.293Z,101100.98
2022-10-10T13:18:35.014Z,101099.54
2022-10-10T13:22:11.484Z,101091.59
2022-10-10T13:25:49.054Z,101085.23
2022-10-10T13:29:35.570Z,101080.17
2022-10-10T13:33:19.254Z,101073.58
2022-10-10T13:36:58.352Z,101071.12
2022-10-10T13:40:35.541Z,101061.67
2022-10-10T13:44:17.802Z,101053.05
2022-10-10T13:48:01.272Z,101053.52
2022-10-10T13:52:02.708Z,101050.70
2022-10-10T13:55:40.834Z,101043.13
2022-10-10T13:59:19.474Z,101037.69
2022-10-10T14:02:56.647Z,101035.76
2022-10-10T14:06:34.131Z,101029.73
2022-10-10T14:10:17.411Z,101022.20
2022-10-10T14:14:07.233Z,101022.57
2022-10-10T14:17:44.245Z,101016.35
2022-10-10T14:21:21.774Z,101013.33
2022-10-10T14:24:59.793Z,101003.05
2022-10-10T14:28:40.063Z,100993.32
2022-10-10T14:32:17.437Z,100986.37
2022-10-10T14:35:56.554Z,100985.76
2022-10-10T14:39:36.324Z,100979.35
2022-10-10T14:43:14.802Z,100974.05
2022-10-10T14:46:52.743Z,100971.45
2022-10-10T14:50:41.732Z,100966.21
2022-10-10T14:54:19.431Z,100960.91
2022-10-10T14:57:57.111Z,100953.15
2022-10-10T15:01:33.289Z,100955.09
2022-10-10T15:05:13.049Z,100951.02
2022-10-10T15:08:50.080Z,100953.67
2022-10-10T15:12:27.473Z,100953.16
2022-10-10T15:16:06.451Z,100947.47
2022-10-10T15:19:42.674Z,100943.14
2022-10-10T15:23:20.214Z,100940.77
2022-10-10T15:26:58.200Z,100935.53
2022-10-10T15:30:39.486Z,100936.45
2022-10-10T15:34:19.383Z,100936.71
2022-10-10T15:37:59.305Z,100928.45
2022-10-10T15:41:36.811Z,100929.23
2022-10-10T15:45:16.696Z,100930.37
2022-10-10T15:49:02.548Z,100934.55
2022-10-10T15:52:39.055Z,100937.00
2022-10-10T15:56:18.599Z,100935.90
2022-10-10T15:59:55.474Z,100934.01
2022-10-10T16:03:36.010Z,100932.95
2022-10-10T16:07:26.800Z,100925.99
2022-10-10T16:11:07.093Z,100924.09
2022-10-10T16:14:43.027Z,100924.27
2022-10-10T16:18:21.232Z,100926.83
2022-10-10T16:21:59.832Z,100935.20
2022-10-10T16:25:36.591Z,100937.69
2022-10-10T16:29:18.662Z,100935.77
2022-10-10T16:32:55.410Z,100932.31
2022-10-10T16:36:35.138Z,100929.52
2022-10-10T16:40:12.888Z,100931.70
2022-10-10T16:43:50.321Z,100930.25
2022-10-10T16:47:27.299Z,100927.79
2022-10-10T16:51:07.550Z,100928.63
2022-10-10T16:54:47.782Z,100928.56
2022-10-10T16:58:31.864Z,100928.94
2022-10-10T17:02:12.221Z,100925.33
2022-10-10T17:05:48.949Z,100918.38
2022-10-10T17:09:26.632Z,100917.21
2022-10-10T17:13:04.594Z,100913.40
2022-10-10T17:17:10.562Z,100908.14
2022-10-10T17:20:43.569Z,100902.40
2022-10-10T17:24:20.092Z,100892.20
2022-10-10T17:27:58.172Z,100890.90
2022-10-10T17:31:35.123Z,100878.03
2022-10-10T17:35:12.857Z,100871.18
2022-10-10T17:38:51.289Z,100868.23
2022-10-10T17:42:28.472Z,100861.23
2022-10-10T17:46:34.193Z,100858.59
2022-10-10T17:50:13.393Z,100856.23
2022-10-10T17:53:51.174Z,100852.58
2022-10-10T17:57:28.528Z,100852.41
2022-10-10T18:01:06.218Z,100854.32
2022-10-10T18:04:45.087Z,100850.37
2022-10-10T18:08:22.533Z,100846.37
2022-10-10T18:11:59.092Z,100844.86
2022-10-10T18:15:39.216Z,100841.11
2022-10-10T18:19:18.951Z,100844.05
2022-10-10T18:22:55.812Z,100845.80
2022-10-10T18:26:35.265Z,100845.62
2022-10-10T18:30:12.382Z,100842.70
2022-10-10T18:33:51.168Z,100844.42
2022-10-10T18:37:29.082Z,100844.58
2022-10-10T18:41:08.697Z,100838.71
2022-10-10T18:44:45.537Z,100827.71
2022-10-10T18:48:24.565Z,100822.86
2022-10-10T18:52:03.293Z,100820.69
2022-10-10T18:55:40.088Z,100821.60
2022-10-10T18:59:21.955Z,100820.13
2022-10-10T19:02:58.496Z,100811.09
2022-10-10T19:06:38.585Z,100810.50
2022-10-10T19:10:14.871Z,100811.36
2022-10-10T19:13:55.596Z,100812.34
2022-10-10T19:17:36.203Z,100805.33
2022-10-10T19:21:13.154Z,100807.73
2022-10-10T19:24:54.392Z,100801.43
2022-10-10T19:28:32.431Z,100802.01
2022-10-10T19:32:10.213Z,100796.02
2022-10-10T19:35:49.867Z,100793.24
2022-10-10T19:39:31.447Z,100785.16
2022-10-10T19:43:07.918Z,100781.62
2022-10-10T19:46:45.800Z,100775.34
2022-10-10T19:50:23.504Z,100773.83
2022-10-10T19:54:01.073Z,100769.34
2022-10-10T19:57:38.534Z,100770.88
2022-10-10T20:01:18.039Z,100774.90
2022-10-10T20:04:55.574Z,100767.42
2022-10-10T20:08:32.277Z,100762.11
2022-10-10T20:12:09.967Z,100759.05
2022-10-10T20:15:52.117Z,100756.53
2022-10-10T20:19:48.129Z,100756.52
2022-10-10T20:23:06.992Z,100753.83
2022-10-10T20:26:45.114Z,100755.91
2022-10-10T20:30:23.482Z,100748.86
2022-10-10T20:34:01.818Z,100744.80
2022-10-10T20:37:37.995Z,100741.73
2022-10-10T20:41:16.489Z,100738.47
2022-10-10T20:44:54.841Z,100736.80
2022-10-10T20:48:32.599Z,100735.33
2022-10-10T20:52:09.493Z,100735.31
2022-10-10T20:55:47.058Z,100733.32
2022-10-10T20:59:24.790Z,100728.77
2022-10-10T21:03:02.602Z,100724.48
2022-10-10T21:06:42.818Z,100724.15
2022-10-10T21:10:19.934Z,100724.14
2022-10-10T21:14:01.027Z,100718.44
2022-10-10T21:17:39.390Z,100717.80
2022-10-10T21:21:16.276Z,100716.09
2022-10-10T21:24:54.253Z,100707.58
2022-10-10T21:28:32.742Z,100703.86
2022-10-10T21:32:09.118Z,100701.97
2022-10-10T21:35:51.253Z,100701.02
2022-10-10T21:39:29.183Z,100700.24
2022-10-10T21:43:06.803Z,100695.66
2022-10-10T21:46:43.005Z,100696.02
2022-10-10T21:50:21.552Z,100692.55
2022-10-10T21:54:00.492Z,100690.54
2022-10-10T21:57:36.890Z,100690.89
2022-10-10T22:01:17.640Z,100688.66
2022-10-10T22:04:54.944Z,100687.70
2022-10-10T22:08:31.814Z,100682.61
2022-10-10T22:12:09.342Z,100680.19
2022-10-10T22:15:47.093Z,100675.04
2022-10-10T22:19:24.919Z,100676.46
2022-10-10T22:23:02.316Z,100669.96
2022-10-10T22:26:41.973Z,100669.62
2022-10-10T22:30:18.407Z,100664.01
2022-10-10T22:33:56.200Z,100657.14
2022-10-10T22:37:34.235Z,100658.15
2022-10-10T22:41:12.795Z,100654.88
2022-10-10T22:44:50.312Z,100651.10
2022-10-10T22:48:27.772Z,100645.41
2022-10-10T22:52:09.809Z,100647.10
2022-10-10T22:55:47.155Z,100641.91
2022-10-10T22:59:25.329Z,100634.75
2022-10-10T23:03:03.295Z,100634.65
2022-10-10T23:06:40.516Z,100632.75
2022-10-10T23:10:17.360Z,100628.05
2022-10-10T23:13:55.909Z,100626.58
2022-10-10T23:17:37.298Z,100624.77
2022-10-10T23:21:35.594Z,100624.04
2022-10-10T23:25:12.195Z,100627.25
2022-10-10T23:28:51.541Z,100622.08
2022-10-10T23:32:32.595Z,100621.19
2022-10-10T23:36:13.656Z,100617.40
2022-10-10T23:39:50.331Z,100610.01
2022-10-10T23:43:27.775Z,100605.90
2022-10-10T23:47:05.594Z,100599.35
2022-10-10T23:50:43.817Z,100597.81
2022-10-10T23:54:21.074Z,100596.89
2022-10-10T23:58:03.211Z,100598.31
